createdAt,value
2024-02-08T00:00:42.206Z,608.00
2024-02-08T00:01:42.258Z,606.00
2024-02-08T00:02:42.225Z,610.00
2024-02-08T00:03:42.251Z,607.00
2024-02-08T00:04:42.304Z,607.00
2024-02-08T00:05:42.227Z,608.00
2024-02-08T00:06:42.302Z,605.00
2024-02-08T00:07:42.240Z,607.00
2024-02-08T00:08:42.254Z,608.00
2024-02-08T00:09:42.246Z,606.00
2024-02-08T00:10:42.284Z,605.00
2024-02-08T00:11:42.243Z,603.00
2024-02-08T00:12:42.224Z,606.00
2024-02-08T00:13:42.346Z,607.00
2024-02-08T00:14:42.228Z,608.00
2024-02-08T00:15:42.254Z,604.00
2024-02-08T00:16:42.326Z,606.00
2024-02-08T00:17:42.333Z,606.00
2024-02-08T00:18:42.402Z,605.00
2024-02-08T00:19:42.305Z,602.00
2024-02-08T00:20:42.276Z,606.00
2024-02-08T00:21:42.457Z,605.00
2024-02-08T00:22:42.318Z,604.00
2024-02-08T00:23:42.251Z,603.00
2024-02-08T00:24:42.272Z,604.00
2024-02-08T00:25:42.270Z,606.00
2024-02-08T00:26:42.285Z,603.00
2024-02-08T00:27:42.251Z,607.00
2024-02-08T00:28:42.282Z,607.00
2024-02-08T00:29:44.586Z,602.00
2024-02-08T00:30:42.336Z,603.00
2024-02-08T00:31:42.357Z,605.00
2024-02-08T00:32:42.384Z,603.00
2024-02-08T00:33:42.443Z,603.00
2024-02-08T00:34:42.434Z,601.00
2024-02-08T00:35:42.518Z,604.00
2024-02-08T00:36:42.375Z,601.00
2024-02-08T00:37:42.412Z,602.00
2024-02-08T00:38:42.408Z,604.00
2024-02-08T00:39:42.417Z,604.00
2024-02-08T00:40:42.472Z,603.00
2024-02-08T00:41:42.450Z,605.00
2024-02-08T00:42:42.431Z,607.00
2024-02-08T00:43:42.464Z,602.00
2024-02-08T00:44:42.481Z,603.00
2024-02-08T00:45:42.449Z,601.00
2024-02-08T00:46:42.550Z,607.00
2024-02-08T00:47:42.515Z,601.00
2024-02-08T00:48:42.536Z,604.00
2024-02-08T00:49:42.594Z,603.00
2024-02-08T00:50:42.513Z,606.00
2024-02-08T00:51:42.531Z,600.00
2024-02-08T00:52:42.608Z,601.00
2024-02-08T00:53:42.834Z,603.00
2024-02-08T00:54:42.541Z,603.00
2024-02-08T00:55:42.662Z,600.00
2024-02-08T00:56:42.554Z,606.00
2024-02-08T00:57:42.584Z,604.00
2024-02-08T00:58:42.612Z,602.00
2024-02-08T00:59:42.628Z,600.00
2024-02-08T01:00:42.620Z,603.00
2024-02-08T01:01:42.709Z,604.00
2024-02-08T01:02:42.615Z,604.00
2024-02-08T01:03:42.677Z,604.00
2024-02-08T01:04:42.678Z,602.00
2024-02-08T01:05:42.698Z,602.00
2024-02-08T01:06:42.676Z,606.00
2024-02-08T01:07:42.692Z,603.00
2024-02-08T01:08:42.693Z,603.00
2024-02-08T01:09:42.676Z,604.00
2024-02-08T01:10:42.716Z,601.00
2024-02-08T01:11:42.672Z,604.00
2024-02-08T01:12:42.724Z,604.00
2024-02-08T01:13:42.706Z,604.00
2024-02-08T01:14:42.673Z,604.00
2024-02-08T01:15:42.677Z,603.00
2024-02-08T01:16:42.729Z,602.00
2024-02-08T01:17:42.754Z,605.00
2024-02-08T01:18:43.046Z,604.00
2024-02-08T01:19:42.781Z,603.00
2024-02-08T01:20:42.743Z,603.00
2024-02-08T01:21:42.746Z,602.00
2024-02-08T01:22:42.776Z,608.00
2024-02-08T01:23:42.772Z,603.00
2024-02-08T01:24:42.768Z,601.00
2024-02-08T01:25:42.882Z,605.00
2024-02-08T01:26:42.771Z,604.00
2024-02-08T01:27:42.770Z,605.00
2024-02-08T01:28:42.877Z,604.00
2024-02-08T01:29:42.783Z,605.00
2024-02-08T01:30:42.832Z,603.00
2024-02-08T01:31:42.914Z,602.00
2024-02-08T01:32:42.903Z,601.00
2024-02-08T01:33:42.901Z,602.00
2024-02-08T01:34:43.035Z,602.00
2024-02-08T01:35:42.846Z,605.00
2024-02-08T01:36:42.882Z,605.00
2024-02-08T01:37:42.956Z,605.00
2024-02-08T01:38:42.905Z,607.00
2024-02-08T01:39:42.946Z,601.00
2024-02-08T01:40:42.928Z,605.00
2024-02-08T01:41:42.913Z,602.00
2024-02-08T01:42:42.923Z,604.00
2024-02-08T01:43:43.008Z,606.00
2024-02-08T01:44:42.933Z,607.00
2024-02-08T01:45:42.914Z,603.00
2024-02-08T01:46:42.984Z,605.00
2024-02-08T01:47:43.039Z,606.00
2024-02-08T01:48:43.012Z,604.00
2024-02-08T01:49:43.008Z,610.00
2024-02-08T01:50:43.047Z,603.00
2024-02-08T01:51:43.017Z,604.00
2024-02-08T01:52:43.062Z,602.00
2024-02-08T01:53:43.033Z,605.00
2024-02-08T01:54:43.060Z,606.00
2024-02-08T01:55:43.078Z,600.00
2024-02-08T01:56:43.183Z,604.00
2024-02-08T01:57:43.086Z,602.00
2024-02-08T01:58:43.145Z,609.00
2024-02-08T01:59:43.128Z,604.00
2024-02-08T02:00:43.162Z,601.00
2024-02-08T02:01:43.171Z,606.00
2024-02-08T02:02:43.167Z,602.00
2024-02-08T02:03:43.247Z,604.00
2024-02-08T02:04:43.248Z,606.00
2024-02-08T02:05:43.207Z,609.00
2024-02-08T02:06:43.198Z,607.00
2024-02-08T02:07:43.269Z,608.00
2024-02-08T02:08:43.258Z,605.00
2024-02-08T02:09:43.282Z,605.00
2024-02-08T02:10:43.273Z,602.00
2024-02-08T02:11:43.374Z,602.00
2024-02-08T02:12:43.270Z,602.00
2024-02-08T02:13:43.335Z,604.00
2024-02-08T02:14:43.343Z,606.00
2024-02-08T02:15:43.318Z,607.00
2024-02-08T02:16:43.413Z,600.00
2024-02-08T02:17:43.421Z,603.00
2024-02-08T02:18:43.414Z,602.00
2024-02-08T02:19:43.401Z,607.00
2024-02-08T02:20:43.399Z,601.00
2024-02-08T02:21:43.412Z,605.00
2024-02-08T02:22:43.697Z,601.00
2024-02-08T02:23:43.402Z,604.00
2024-02-08T02:24:43.446Z,605.00
2024-02-08T02:25:43.445Z,605.00
2024-02-08T02:26:43.444Z,603.00
2024-02-08T02:27:43.520Z,601.00
2024-02-08T02:28:43.494Z,600.00
2024-02-08T02:29:43.464Z,603.00
2024-02-08T02:30:43.475Z,602.00
2024-02-08T02:31:43.543Z,606.00
2024-02-08T02:32:43.537Z,602.00
2024-02-08T02:33:43.676Z,607.00
2024-02-08T02:35:43.542Z,606.00
2024-02-08T02:36:43.581Z,606.00
2024-02-08T02:37:43.577Z,610.00
2024-02-08T02:38:43.566Z,604.00
2024-02-08T02:39:43.585Z,606.00
2024-02-08T02:40:43.637Z,607.00
2024-02-08T02:41:43.569Z,605.00
2024-02-08T02:42:43.593Z,604.00
2024-02-08T02:43:43.670Z,604.00
2024-02-08T02:44:43.611Z,605.00
2024-02-08T02:45:43.611Z,602.00
2024-02-08T02:46:43.668Z,602.00
2024-02-08T02:47:43.726Z,605.00
2024-02-08T02:48:43.713Z,603.00
2024-02-08T02:49:43.667Z,603.00
2024-02-08T02:50:44.105Z,603.00
2024-02-08T02:51:43.656Z,603.00
2024-02-08T02:52:43.761Z,610.00
2024-02-08T02:53:43.785Z,603.00
2024-02-08T02:54:43.744Z,603.00
2024-02-08T02:55:43.731Z,605.00
2024-02-08T02:56:43.759Z,603.00
2024-02-08T02:57:43.763Z,604.00
2024-02-08T02:58:43.790Z,606.00
2024-02-08T02:59:43.786Z,606.00
2024-02-08T03:00:43.803Z,606.00
2024-02-08T03:01:43.938Z,607.00
2024-02-08T03:02:43.813Z,605.00
2024-02-08T03:03:43.845Z,604.00
2024-02-08T03:04:43.831Z,604.00
2024-02-08T03:05:43.813Z,606.00
2024-02-08T03:06:43.825Z,603.00
2024-02-08T03:07:43.996Z,603.00
2024-02-08T03:08:44.196Z,603.00
2024-02-08T03:09:43.843Z,606.00
2024-02-08T03:10:44.005Z,605.00
2024-02-08T03:11:43.907Z,603.00
2024-02-08T03:12:43.921Z,604.00
2024-02-08T03:13:44.351Z,604.00
2024-02-08T03:14:43.910Z,606.00
2024-02-08T03:15:43.955Z,601.00
2024-02-08T03:16:44.000Z,603.00
2024-02-08T03:17:44.051Z,604.00
2024-02-08T03:18:44.006Z,604.00
2024-02-08T03:19:43.980Z,606.00
2024-02-08T03:20:43.984Z,604.00
2024-02-08T03:21:44.024Z,602.00
2024-02-08T03:22:44.057Z,605.00
2024-02-08T03:23:44.380Z,601.00
2024-02-08T03:24:44.142Z,603.00
2024-02-08T03:25:44.123Z,607.00
2024-02-08T03:26:44.090Z,607.00
2024-02-08T03:27:44.109Z,605.00
2024-02-08T03:28:44.203Z,605.00
2024-02-08T03:29:44.148Z,608.00
2024-02-08T03:30:44.168Z,606.00
2024-02-08T03:31:44.172Z,604.00
2024-02-08T03:32:44.218Z,608.00
2024-02-08T03:33:44.441Z,604.00
2024-02-08T03:34:44.279Z,603.00
2024-02-08T03:35:44.245Z,602.00
2024-02-08T03:36:44.229Z,604.00
2024-02-08T03:37:44.279Z,607.00
2024-02-08T03:38:44.295Z,605.00
2024-02-08T03:39:44.302Z,602.00
2024-02-08T03:40:44.428Z,604.00
2024-02-08T03:41:44.339Z,605.00
2024-02-08T03:42:44.362Z,601.00
2024-02-08T03:43:44.361Z,605.00
2024-02-08T03:44:44.330Z,605.00
2024-02-08T03:45:44.337Z,604.00
2024-02-08T03:46:44.425Z,605.00
2024-02-08T03:47:44.461Z,603.00
2024-02-08T03:48:44.526Z,605.00
2024-02-08T03:49:44.485Z,607.00
2024-02-08T03:50:44.434Z,603.00
2024-02-08T03:51:44.419Z,605.00
2024-02-08T03:52:44.470Z,606.00
2024-02-08T03:53:44.465Z,604.00
2024-02-08T03:54:44.482Z,601.00
2024-02-08T03:55:44.518Z,606.00
2024-02-08T03:56:44.500Z,603.00
2024-02-08T03:57:44.523Z,605.00
2024-02-08T03:58:44.580Z,603.00
2024-02-08T03:59:44.564Z,610.00
2024-02-08T04:00:44.579Z,605.00
2024-02-08T04:01:44.852Z,606.00
2024-02-08T04:02:44.675Z,604.00
2024-02-08T04:03:44.680Z,602.00
2024-02-08T04:04:44.685Z,609.00
2024-02-08T04:05:44.686Z,605.00
2024-02-08T04:06:44.666Z,604.00
2024-02-08T04:07:44.648Z,606.00
2024-02-08T04:08:44.922Z,608.00
2024-02-08T04:09:44.715Z,606.00
2024-02-08T04:10:44.752Z,603.00
2024-02-08T04:11:44.761Z,605.00
2024-02-08T04:12:44.761Z,604.00
2024-02-08T04:13:44.929Z,605.00
2024-02-08T04:14:44.751Z,602.00
2024-02-08T04:15:44.801Z,606.00
2024-02-08T04:16:44.827Z,607.00
2024-02-08T04:17:44.847Z,606.00
2024-02-08T04:18:44.897Z,605.00
2024-02-08T04:19:44.892Z,606.00
2024-02-08T04:20:44.890Z,604.00
2024-02-08T04:21:44.921Z,601.00
2024-02-08T04:22:44.923Z,607.00
2024-02-08T04:23:44.943Z,606.00
2024-02-08T04:24:44.936Z,604.00
2024-02-08T04:25:45.012Z,604.00
2024-02-08T04:26:44.945Z,604.00
2024-02-08T04:27:44.990Z,603.00
2024-02-08T04:28:45.063Z,602.00
2024-02-08T04:29:45.010Z,605.00
2024-02-08T04:30:44.995Z,605.00
2024-02-08T04:31:45.011Z,605.00
2024-02-08T04:32:45.125Z,605.00
2024-02-08T04:33:45.116Z,600.00
2024-02-08T04:34:45.105Z,606.00
2024-02-08T04:35:45.053Z,600.00
2024-02-08T04:36:45.091Z,606.00
2024-02-08T04:37:45.148Z,604.00
2024-02-08T04:38:45.131Z,605.00
2024-02-08T04:39:45.154Z,603.00
2024-02-08T04:40:45.176Z,605.00
2024-02-08T04:41:52.433Z,600.00
2024-02-08T04:42:52.414Z,600.00
2024-02-08T04:43:52.550Z,600.00
2024-02-08T04:44:52.420Z,600.00
2024-02-08T04:45:52.433Z,600.00
2024-02-08T04:46:52.471Z,604.00
2024-02-08T04:47:52.508Z,604.00
2024-02-08T04:48:52.514Z,601.00
2024-02-08T04:49:52.465Z,603.00
2024-02-08T04:50:52.418Z,600.00
2024-02-08T04:51:52.472Z,602.00
2024-02-08T04:52:52.489Z,601.00
2024-02-08T04:53:52.449Z,603.00
2024-02-08T04:54:52.450Z,601.00
2024-02-08T04:55:52.448Z,607.00
2024-02-08T04:56:52.426Z,603.00
2024-02-08T04:57:53.312Z,601.00
2024-02-08T04:59:55.236Z,602.00
2024-02-08T05:00:52.507Z,603.00
2024-02-08T05:01:52.448Z,604.00
2024-02-08T05:02:52.453Z,604.00
2024-02-08T05:03:52.464Z,606.00
2024-02-08T05:04:52.658Z,602.00
2024-02-08T05:05:52.485Z,604.00
2024-02-08T05:06:52.562Z,602.00
2024-02-08T05:07:52.472Z,600.00
2024-02-08T05:08:52.480Z,601.00
2024-02-08T05:09:52.544Z,606.00
2024-02-08T05:10:52.508Z,601.00
2024-02-08T05:11:52.464Z,604.00
2024-02-08T05:12:52.467Z,606.00
2024-02-08T05:13:52.456Z,606.00
2024-02-08T05:14:52.517Z,603.00
2024-02-08T05:15:52.476Z,608.00
2024-02-08T05:16:52.478Z,608.00
2024-02-08T05:17:52.526Z,604.00
2024-02-08T05:18:52.558Z,602.00
2024-02-08T05:19:52.541Z,604.00
2024-02-08T05:20:52.460Z,606.00
2024-02-08T05:21:52.579Z,601.00
2024-02-08T05:22:52.484Z,604.00
2024-02-08T05:23:52.578Z,607.00
2024-02-08T05:24:52.531Z,602.00
2024-02-08T05:25:52.493Z,604.00
2024-02-08T05:26:52.470Z,603.00
2024-02-08T05:27:52.512Z,605.00
2024-02-08T05:28:52.495Z,605.00
2024-02-08T05:29:52.530Z,603.00
2024-02-08T05:30:52.512Z,603.00
2024-02-08T05:31:52.546Z,600.00
2024-02-08T05:32:52.507Z,603.00
2024-02-08T05:33:52.546Z,602.00
2024-02-08T05:34:52.620Z,600.00
2024-02-08T05:35:52.475Z,604.00
2024-02-08T05:36:52.596Z,601.00
2024-02-08T05:37:52.504Z,603.00
2024-02-08T05:38:52.510Z,601.00
2024-02-08T05:39:52.574Z,602.00
2024-02-08T05:40:52.506Z,605.00
2024-02-08T05:41:52.525Z,608.00
2024-02-08T05:42:52.543Z,606.00
2024-02-08T05:43:52.529Z,603.00
2024-02-08T05:44:52.495Z,603.00
2024-02-08T05:45:52.655Z,604.00
2024-02-08T05:46:52.514Z,608.00
2024-02-08T05:47:52.617Z,606.00
2024-02-08T05:48:52.958Z,607.00
2024-02-08T05:49:52.669Z,604.00
2024-02-08T05:50:52.529Z,602.00
2024-02-08T05:51:52.644Z,605.00
2024-02-08T05:52:52.553Z,609.00
2024-02-08T05:53:52.553Z,604.00
2024-02-08T05:54:52.575Z,604.00
2024-02-08T05:55:52.515Z,603.00
2024-02-08T05:56:54.481Z,603.00
2024-02-08T05:57:52.589Z,604.00
2024-02-08T05:58:52.522Z,602.00
2024-02-08T05:59:52.528Z,605.00
2024-02-08T06:00:52.626Z,602.00
2024-02-08T06:01:52.604Z,605.00
2024-02-08T06:02:52.568Z,606.00
2024-02-08T06:03:52.577Z,606.00
2024-02-08T06:04:53.377Z,602.00
2024-02-08T06:05:52.558Z,602.00
2024-02-08T06:06:52.573Z,603.00
2024-02-08T06:07:52.606Z,605.00
2024-02-08T06:08:52.556Z,602.00
2024-02-08T06:09:52.595Z,607.00
2024-02-08T06:10:52.540Z,603.00
2024-02-08T06:11:52.544Z,603.00
2024-02-08T06:12:52.606Z,605.00
2024-02-08T06:13:52.583Z,605.00
2024-02-08T06:14:52.582Z,600.00
2024-02-08T06:15:52.595Z,608.00
2024-02-08T06:16:52.572Z,608.00
2024-02-08T06:17:52.631Z,607.00
2024-02-08T06:18:52.646Z,603.00
2024-02-08T06:19:52.650Z,601.00
2024-02-08T06:20:52.588Z,602.00
2024-02-08T06:21:52.595Z,607.00
2024-02-08T06:22:52.568Z,605.00
2024-02-08T06:23:52.618Z,603.00
2024-02-08T06:24:52.611Z,602.00
2024-02-08T06:25:52.619Z,603.00
2024-02-08T06:26:52.576Z,605.00
2024-02-08T06:27:52.646Z,605.00
2024-02-08T06:28:52.580Z,605.00
2024-02-08T06:29:52.618Z,604.00
2024-02-08T06:30:52.686Z,605.00
2024-02-08T06:31:52.574Z,604.00
2024-02-08T06:32:52.710Z,605.00
2024-02-08T06:33:52.676Z,607.00
2024-02-08T06:34:52.651Z,606.00
2024-02-08T06:35:52.581Z,606.00
2024-02-08T06:36:52.646Z,605.00
2024-02-08T06:37:52.610Z,609.00
2024-02-08T06:38:52.989Z,608.00
2024-02-08T06:39:52.596Z,602.00
2024-02-08T06:40:52.907Z,609.00
2024-02-08T06:41:52.639Z,605.00
2024-02-08T06:42:52.692Z,605.00
2024-02-08T06:43:52.612Z,607.00
2024-02-08T06:44:53.060Z,602.00
2024-02-08T06:45:52.859Z,605.00
2024-02-08T06:46:52.671Z,603.00
2024-02-08T06:47:52.765Z,602.00
2024-02-08T06:48:52.750Z,602.00
2024-02-08T06:49:52.805Z,600.00
2024-02-08T06:50:52.748Z,604.00
2024-02-08T06:51:52.787Z,605.00
2024-02-08T06:52:52.730Z,616.00
2024-02-08T06:53:52.761Z,616.00
2024-02-08T06:54:52.780Z,616.00
2024-02-08T06:55:52.782Z,621.00
2024-02-08T06:56:52.810Z,622.00
2024-02-08T06:57:52.930Z,625.00
2024-02-08T06:58:52.933Z,632.00
2024-02-08T06:59:55.632Z,632.00
2024-02-08T07:00:53.127Z,640.00
2024-02-08T07:01:53.175Z,640.00
2024-02-08T07:02:53.043Z,635.00
2024-02-08T07:03:53.090Z,644.00
2024-02-08T07:04:53.092Z,643.00
2024-02-08T07:05:53.053Z,647.00
2024-02-08T07:06:53.139Z,657.00
2024-02-08T07:07:53.108Z,665.00
2024-02-08T07:08:53.078Z,679.00
2024-02-08T07:09:53.075Z,696.00
2024-02-08T07:10:53.046Z,707.00
2024-02-08T07:11:53.054Z,726.00
2024-02-08T07:12:53.085Z,746.00
2024-02-08T07:13:53.030Z,772.00
2024-02-08T07:14:53.116Z,777.00
2024-02-08T07:15:53.043Z,786.00
2024-02-08T07:16:53.090Z,773.00
2024-02-08T07:17:53.118Z,801.00
2024-02-08T07:18:58.485Z,839.00
2024-02-08T07:19:54.193Z,840.00
2024-02-08T07:20:53.061Z,845.00
2024-02-08T07:21:53.134Z,859.00
2024-02-08T07:22:53.083Z,886.00
2024-02-08T07:23:53.094Z,936.00
2024-02-08T07:24:53.112Z,952.00
2024-02-08T07:25:53.057Z,961.00
2024-02-08T07:26:53.095Z,951.00
2024-02-08T07:27:53.113Z,927.00
2024-02-08T07:28:53.061Z,915.00
2024-02-08T07:29:53.596Z,918.00
2024-02-08T07:30:56.033Z,899.00
2024-02-08T07:31:53.103Z,897.00
2024-02-08T07:32:53.110Z,873.00
2024-02-08T07:33:53.221Z,866.00
2024-02-08T07:34:53.189Z,863.00
2024-02-08T07:35:53.110Z,847.00
2024-02-08T07:36:53.100Z,823.00
2024-02-08T07:37:53.106Z,824.00
2024-02-08T07:38:53.088Z,811.00
2024-02-08T07:39:53.104Z,797.00
2024-02-08T07:40:53.097Z,759.00
2024-02-08T07:41:53.114Z,736.00
2024-02-08T07:42:53.165Z,746.00
2024-02-08T07:43:53.079Z,740.00
2024-02-08T07:44:53.592Z,741.00
2024-02-08T07:45:53.562Z,745.00
2024-02-08T07:46:53.064Z,759.00
2024-02-08T07:47:53.106Z,758.00
2024-02-08T07:48:53.125Z,768.00
2024-02-08T07:49:53.650Z,776.00
2024-02-08T07:50:53.126Z,790.00
2024-02-08T07:51:53.207Z,804.00
2024-02-08T07:52:53.226Z,811.00
2024-02-08T07:53:53.818Z,825.00
2024-02-08T07:54:53.622Z,1031.00
2024-02-08T07:55:53.441Z,1184.00
2024-02-08T07:56:53.528Z,1246.00
2024-02-08T07:57:54.649Z,1255.00
2024-02-08T07:58:53.596Z,1286.00
2024-02-08T07:59:54.071Z,1295.00
2024-02-08T08:00:53.794Z,1286.00
2024-02-08T08:01:54.016Z,1281.00
2024-02-08T08:02:53.862Z,1264.00
2024-02-08T08:03:54.032Z,1256.00
2024-02-08T08:04:55.001Z,1245.00
2024-02-08T08:05:54.126Z,1245.00
2024-02-08T08:06:54.290Z,1262.00
2024-02-08T08:07:54.168Z,1265.00
2024-02-08T08:08:54.240Z,1277.00
2024-02-08T08:09:54.303Z,1280.00
2024-02-08T08:10:54.353Z,1292.00
2024-02-08T08:11:54.695Z,1283.00
2024-02-08T08:12:54.514Z,1303.00
2024-02-08T08:13:54.503Z,1325.00
2024-02-08T08:14:54.600Z,1323.00
2024-02-08T08:15:54.662Z,1342.00
2024-02-08T08:16:54.692Z,1334.00
2024-02-08T08:17:54.790Z,1349.00
2024-02-08T08:18:54.861Z,1359.00
2024-02-08T08:19:54.966Z,1376.00
2024-02-08T08:20:54.891Z,1370.00
2024-02-08T08:21:54.999Z,1391.00
2024-02-08T08:22:54.984Z,1379.00
2024-02-08T08:23:55.040Z,1392.00
2024-02-08T08:24:55.117Z,1385.00
2024-02-08T08:25:55.197Z,1401.00
2024-02-08T08:26:55.166Z,1398.00
2024-02-08T08:27:55.247Z,1392.00
2024-02-08T08:28:55.260Z,1400.00
2024-02-08T08:29:55.297Z,1396.00
2024-02-08T08:30:55.662Z,1399.00
2024-02-08T08:31:55.354Z,1404.00
2024-02-08T08:32:55.403Z,1405.00
2024-02-08T08:33:55.534Z,1408.00
2024-02-08T08:34:55.662Z,1412.00
2024-02-08T08:35:56.262Z,1395.00
2024-02-08T08:36:55.647Z,1377.00
2024-02-08T08:37:55.718Z,1355.00
2024-02-08T08:38:55.800Z,1349.00
2024-02-08T08:39:55.939Z,1330.00
2024-02-08T08:40:55.940Z,1303.00
2024-02-08T08:41:55.991Z,1284.00
2024-02-08T08:42:56.293Z,1272.00
2024-02-08T08:43:56.161Z,1258.00
2024-02-08T08:44:56.177Z,1243.00
2024-02-08T08:45:56.401Z,1246.00
2024-02-08T08:46:56.264Z,1242.00
2024-02-08T08:47:56.368Z,1243.00
2024-02-08T08:48:57.194Z,1243.00
2024-02-08T08:49:56.820Z,1237.00
2024-02-08T08:50:56.586Z,1214.00
2024-02-08T08:51:56.326Z,1184.00
2024-02-08T08:52:56.293Z,1163.00
2024-02-08T08:53:56.342Z,1154.00
2024-02-08T08:54:56.391Z,1148.00
2024-02-08T08:55:56.325Z,1155.00
2024-02-08T08:56:56.356Z,1152.00
2024-02-08T08:57:57.135Z,1141.00
2024-02-08T08:58:56.469Z,1115.00
2024-02-08T08:59:56.632Z,1074.00
2024-02-08T09:00:56.703Z,1049.00
2024-02-08T09:01:56.832Z,1024.00
2024-02-08T09:02:56.770Z,985.00
2024-02-08T09:03:56.809Z,957.00
2024-02-08T09:04:57.256Z,946.00
2024-02-08T09:05:56.750Z,915.00
2024-02-08T09:06:56.876Z,885.00
2024-02-08T09:07:56.831Z,874.00
2024-02-08T09:08:56.876Z,860.00
2024-02-08T09:09:57.150Z,827.00
2024-02-08T09:10:56.831Z,808.00
2024-02-08T09:11:56.859Z,801.00
2024-02-08T09:12:56.972Z,785.00
2024-02-08T09:13:56.970Z,768.00
2024-02-08T09:14:57.135Z,746.00
2024-02-08T09:15:57.495Z,740.00
2024-02-08T09:16:56.988Z,721.00
2024-02-08T09:17:57.069Z,701.00
2024-02-08T09:18:57.118Z,683.00
2024-02-08T09:19:57.161Z,668.00
2024-02-08T09:20:57.041Z,677.00
2024-02-08T09:21:57.069Z,664.00
2024-02-08T09:22:57.106Z,664.00
2024-02-08T09:23:57.114Z,659.00
2024-02-08T09:24:57.134Z,650.00
2024-02-08T09:25:57.182Z,644.00
2024-02-08T09:26:57.152Z,645.00
2024-02-08T09:27:57.485Z,638.00
2024-02-08T09:28:57.160Z,640.00
2024-02-08T09:29:58.046Z,636.00
2024-02-08T09:30:57.209Z,637.00
2024-02-08T09:31:57.185Z,633.00
2024-02-08T09:32:57.226Z,631.00
2024-02-08T09:33:57.218Z,628.00
2024-02-08T09:34:57.829Z,625.00
2024-02-08T09:35:57.189Z,622.00
2024-02-08T09:36:57.229Z,618.00
2024-02-08T09:37:57.322Z,620.00
2024-02-08T09:38:57.243Z,626.00
2024-02-08T09:39:57.339Z,621.00
2024-02-08T09:40:57.349Z,622.00
2024-02-08T09:41:57.271Z,619.00
2024-02-08T09:42:57.324Z,626.00
2024-02-08T09:43:57.265Z,623.00
2024-02-08T09:44:57.793Z,618.00
2024-02-08T09:45:57.375Z,615.00
2024-02-08T09:46:57.379Z,607.00
2024-02-08T09:47:57.435Z,604.00
2024-02-08T09:48:57.485Z,600.00
2024-02-08T09:49:57.792Z,605.00
2024-02-08T09:50:57.491Z,602.00
2024-02-08T09:51:57.801Z,602.00
2024-02-08T09:53:00.791Z,605.00
2024-02-08T09:53:57.616Z,599.00
2024-02-08T09:54:57.701Z,590.00
2024-02-08T09:55:57.721Z,585.00
2024-02-08T09:56:57.605Z,582.00
2024-02-08T09:57:57.662Z,578.00
2024-02-08T09:59:08.748Z,600.00
2024-02-08T09:59:58.617Z,600.00
2024-02-08T10:00:57.875Z,591.00
2024-02-08T10:01:57.787Z,587.00
2024-02-08T10:02:57.736Z,582.00
2024-02-08T10:04:00.431Z,578.00
2024-02-08T10:04:58.411Z,577.00
2024-02-08T10:05:57.621Z,571.00
2024-02-08T10:06:58.241Z,568.00
2024-02-08T10:07:57.642Z,560.00
2024-02-08T10:08:57.664Z,560.00
2024-02-08T10:09:58.191Z,593.00
2024-02-08T10:11:01.265Z,600.00
2024-02-08T10:11:58.656Z,599.00
2024-02-08T10:12:57.687Z,599.00
2024-02-08T10:13:57.868Z,593.00
2024-02-08T10:14:58.178Z,591.00
2024-02-08T10:15:58.038Z,595.00
2024-02-08T10:16:57.642Z,604.00
2024-02-08T10:17:57.717Z,606.00
2024-02-08T10:18:57.783Z,600.00
2024-02-08T10:19:58.315Z,603.00
2024-02-08T10:20:57.788Z,602.00
2024-02-08T10:21:57.939Z,601.00
2024-02-08T10:22:57.912Z,604.00
2024-02-08T10:23:57.993Z,602.00
2024-02-08T10:24:58.183Z,600.00
2024-02-08T10:25:58.007Z,602.00
2024-02-08T10:26:58.074Z,603.00
2024-02-08T10:27:58.155Z,603.00
2024-02-08T10:28:58.143Z,604.00
2024-02-08T10:29:58.631Z,603.00
2024-02-08T10:30:58.836Z,603.00
2024-02-08T10:31:58.280Z,601.00
2024-02-08T10:32:58.417Z,600.00
2024-02-08T10:33:58.495Z,606.00
2024-02-08T10:34:58.711Z,603.00
2024-02-08T10:35:58.467Z,603.00
2024-02-08T10:36:58.497Z,605.00
2024-02-08T10:37:58.515Z,605.00
2024-02-08T10:38:59.400Z,604.00
2024-02-08T10:39:58.583Z,603.00
2024-02-08T10:40:58.551Z,608.00
2024-02-08T10:41:59.117Z,608.00
2024-02-08T10:42:58.631Z,607.00
2024-02-08T10:43:58.650Z,609.00
2024-02-08T10:44:58.627Z,606.00
2024-02-08T10:45:58.676Z,605.00
2024-02-08T10:46:58.660Z,602.00
2024-02-08T10:47:58.647Z,604.00
2024-02-08T10:48:58.790Z,602.00
2024-02-08T10:49:59.228Z,606.00
2024-02-08T10:50:58.655Z,609.00
2024-02-08T10:51:58.729Z,609.00
2024-02-08T10:52:58.754Z,606.00
2024-02-08T10:53:58.881Z,605.00
2024-02-08T10:54:59.303Z,603.00
2024-02-08T10:55:58.761Z,603.00
2024-02-08T10:56:58.817Z,606.00
2024-02-08T10:57:58.885Z,607.00
2024-02-08T10:58:58.834Z,606.00
2024-02-08T10:59:59.203Z,602.00
2024-02-08T11:00:58.940Z,608.00
2024-02-08T11:01:58.933Z,603.00
2024-02-08T11:02:58.920Z,600.00
2024-02-08T11:03:59.114Z,603.00
2024-02-08T11:04:59.372Z,601.00
2024-02-08T11:05:58.994Z,606.00
2024-02-08T11:06:59.078Z,600.00
2024-02-08T11:07:59.003Z,603.00
2024-02-08T11:08:58.996Z,605.00
2024-02-08T11:09:59.268Z,608.00
2024-02-08T11:10:59.099Z,605.00
2024-02-08T11:11:59.141Z,603.00
2024-02-08T11:12:59.255Z,600.00
2024-02-08T11:13:59.211Z,605.00
2024-02-08T11:14:59.196Z,606.00
2024-02-08T11:15:59.300Z,603.00
2024-02-08T11:16:59.404Z,602.00
2024-02-08T11:17:59.377Z,608.00
2024-02-08T11:18:59.469Z,606.00
2024-02-08T11:20:00.210Z,602.00
2024-02-08T11:20:59.391Z,604.00
2024-02-08T11:21:59.491Z,606.00
2024-02-08T11:22:59.499Z,604.00
2024-02-08T11:23:59.562Z,600.00
2024-02-08T11:24:59.976Z,604.00
2024-02-08T11:25:59.690Z,605.00
2024-02-08T11:26:59.813Z,602.00
2024-02-08T11:28:04.322Z,603.00
2024-02-08T11:29:00.762Z,604.00
2024-02-08T11:30:00.224Z,604.00
2024-02-08T11:30:59.776Z,604.00
2024-02-08T11:31:59.730Z,598.00
2024-02-08T11:32:59.777Z,603.00
2024-02-08T11:33:59.796Z,600.00
2024-02-08T11:34:59.815Z,608.00
2024-02-08T11:35:59.773Z,601.00
2024-02-08T11:37:00.300Z,605.00
2024-02-08T11:37:59.766Z,609.00
2024-02-08T11:39:00.377Z,608.00
2024-02-08T11:39:59.948Z,610.00
2024-02-08T11:40:59.945Z,607.00
2024-02-08T11:41:59.955Z,613.00
2024-02-08T11:43:00.116Z,618.00
2024-02-08T11:44:00.083Z,615.00
2024-02-08T11:45:00.167Z,613.00
2024-02-08T11:46:00.210Z,622.00
2024-02-08T11:47:00.239Z,616.00
2024-02-08T11:48:00.354Z,612.00
2024-02-08T11:49:00.414Z,613.00
2024-02-08T11:50:00.778Z,615.00
2024-02-08T11:51:00.487Z,612.00
2024-02-08T11:52:00.487Z,617.00
2024-02-08T11:53:00.934Z,619.00
2024-02-08T11:54:00.606Z,612.00
2024-02-08T11:55:00.739Z,615.00
2024-02-08T11:56:00.702Z,609.00
2024-02-08T11:57:00.774Z,615.00
2024-02-08T11:58:00.856Z,619.00
2024-02-08T11:59:00.878Z,607.00
2024-02-08T12:00:01.213Z,604.00
2024-02-08T12:01:01.125Z,613.00
2024-02-08T12:02:01.116Z,604.00
2024-02-08T12:03:01.144Z,612.00
2024-02-08T12:04:01.276Z,608.00
2024-02-08T12:05:01.932Z,610.00
2024-02-08T12:06:01.282Z,616.00
2024-02-08T12:07:01.467Z,604.00
2024-02-08T12:08:01.430Z,609.00
2024-02-08T12:09:01.523Z,613.00
2024-02-08T12:10:02.047Z,611.00
2024-02-08T12:11:01.599Z,613.00
2024-02-08T12:12:01.683Z,603.00
2024-02-08T12:13:01.817Z,604.00
2024-02-08T12:14:06.877Z,606.00
2024-02-08T12:15:02.780Z,600.00
2024-02-08T12:16:01.848Z,607.00
2024-02-08T12:17:01.822Z,606.00
2024-02-08T12:18:01.859Z,605.00
2024-02-08T12:19:01.939Z,611.00
2024-02-08T12:20:02.586Z,612.00
2024-02-08T12:21:01.931Z,613.00
2024-02-08T12:22:01.825Z,609.00
2024-02-08T12:23:01.822Z,611.00
2024-02-08T12:24:01.843Z,613.00
2024-02-08T12:25:02.238Z,611.00
2024-02-08T12:26:01.964Z,621.00
2024-02-08T12:27:01.960Z,612.00
2024-02-08T12:28:02.113Z,616.00
2024-02-08T12:29:02.089Z,605.00